YMAV

Avalon Airport

Melbourne, Australia
TAF YMAV 202305Z 2100/2124 31005KT CAVOK
Issued Valid From Valid To
Jun-20 @ 23:05 UTC
(11 hours ago)
Jun-21 @ 00:00 UTC
(10 hours ago)
Jun-22 @ 00:00 UTC
(in 14 hours)
Jun-21 @ 00:00 to Jun-22 @ 00:00
TAF YMAV 202305Z 2100/2124 31005KT CAVOK
Wind Visibility Clouds Conditions
310° at 5 knots 10,000+ meters
  • No significant clouds
TAF YMAV 202305Z 2100/2124 31005KT CAVOK
Issued Jun-20 @ 23:05 UTC
(11 hours ago)
Valid From Jun-21 @ 00:00 UTC
(10 hours ago)
Valid To Jun-22 @ 00:00 UTC
(in 14 hours)
Jun-21 @ 00:00 - Jun-22 @ 00:00
Wind Visibility
310° at 5 knots 10,000+ meters
Clouds
  • No significant clouds
Conditions